Time;durP1;ratioP1;P1;durP2;ratioP2;P2;SDS_P1;SDS_P2;PMS_P1;PMS_P2;Temp;Humidity;BMP_temperature;BMP_pressure;BME280_temperature;BME280_humidity;BME280_pressure;Samples;Min_cycle;Max_cycle;Signal;HPM_P1;HPM_P2
2023/10/08 00:01:03;;;;;;;14.23;6.97;;;18.10;23.60;;;;;;5096121;28;20046;-69
2023/10/08 00:03:29;;;;;;;14.40;7.03;;;18.10;23.30;;;;;;5096319;28;20177;-69
2023/10/08 00:05:55;;;;;;;17.42;7.55;;;18.10;24.50;;;;;;5095658;28;20394;-69
2023/10/08 00:08:21;;;;;;;18.17;7.88;;;18.10;25.60;;;;;;5096215;28;20482;-70
2023/10/08 00:10:47;;;;;;;12.63;6.88;;;18.00;29.60;;;;;;5096512;28;20113;-70
2023/10/08 00:13:15;;;;;;;19.38;7.55;;;18.00;31.20;;;;;;5095006;28;20516;-69
2023/10/08 00:15:58;;;;;;;26.00;8.50;;;17.90;34.40;;;;;;5096379;28;20032;-70
2023/10/08 00:18:23;;;;;;;14.93;7.28;;;17.90;35.90;;;;;;5096340;28;20028;-70
2023/10/08 00:21:16;;;;;;;15.43;7.97;;;17.90;40.10;;;;;;5095927;28;20031;-70
2023/10/08 00:23:41;;;;;;;15.23;7.57;;;17.90;41.90;;;;;;5095174;28;20062;-70
2023/10/08 00:26:08;;;;;;;15.75;7.88;;;17.80;43.20;;;;;;5095924;28;20024;-70
2023/10/08 00:28:34;;;;;;;12.90;6.80;;;17.80;48.50;;;;;;5095667;28;20085;-70
2023/10/08 00:31:10;;;;;;;14.75;7.25;;;17.80;48.30;;;;;;5095101;28;20024;-70
2023/10/08 00:33:36;;;;;;;19.05;7.47;;;17.80;48.50;;;;;;5095822;28;20073;-70
2023/10/08 00:36:17;;;;;;;20.80;7.20;;;17.90;48.10;;;;;;5096007;28;20024;-70
2023/10/08 00:38:44;;;;;;;18.05;7.57;;;17.80;47.40;;;;;;5095939;28;20069;-70
2023/10/08 00:41:14;;;;;;;17.35;7.18;;;17.80;55.00;;;;;;5095910;28;20107;-70
2023/10/08 00:43:40;;;;;;;13.80;7.30;;;17.70;58.60;;;;;;5095556;28;20358;-70
2023/10/08 00:46:23;;;;;;;18.38;7.18;;;17.70;57.00;;;;;;5095569;28;20085;-70
2023/10/08 00:48:54;;;;;;;14.70;6.65;;;17.80;53.10;;;;;;5095334;28;20046;-70
2023/10/08 00:54:05;;;;;;;11.43;6.60;;;17.80;59.70;;;;;;5071425;28;20788;-70
2023/10/08 00:57:05;;;;;;;14.18;7.30;;;17.80;52.60;;;;;;5071568;28;20087;-70
2023/10/08 00:59:23;;;;;;;13.75;7.32;;;17.80;52.70;;;;;;5070460;28;20024;-70
2023/10/08 01:01:51;;;;;;;14.63;6.60;;;17.80;53.10;;;;;;5070560;28;20079;-70
2023/10/08 01:04:23;;;;;;;16.73;7.80;;;17.80;53.50;;;;;;5071478;28;20028;-70
2023/10/08 01:06:55;;;;;;;17.23;7.72;;;17.70;55.70;;;;;;5071098;28;20025;-70
2023/10/08 01:09:30;;;;;;;15.13;7.43;;;17.70;57.70;;;;;;5071382;28;20052;-70
2023/10/08 01:12:15;;;;;;;17.92;7.35;;;17.70;60.20;;;;;;5070798;28;20478;-70
2023/10/08 01:14:43;;;;;;;20.50;7.90;;;17.70;61.40;;;;;;5071248;28;20455;-70
2023/10/08 01:17:13;;;;;;;17.20;7.60;;;17.70;60.20;;;;;;5070720;28;20052;-70
2023/10/08 01:19:40;;;;;;;18.48;8.27;;;17.70;64.90;;;;;;5070610;28;20108;-70
2023/10/08 01:22:07;;;;;;;18.25;7.95;;;17.70;62.50;;;;;;5070399;28;20031;-70
2023/10/08 01:24:35;;;;;;;16.00;7.32;;;17.70;65.00;;;;;;5070481;28;20436;-70
2023/10/08 01:27:04;;;;;;;18.00;7.95;;;17.70;66.90;;;;;;5070750;28;20028;-70
2023/10/08 01:29:29;;;;;;;18.60;8.23;;;17.70;68.90;;;;;;5070897;28;20028;-70
2023/10/08 01:31:56;;;;;;;16.02;7.47;;;17.70;67.10;;;;;;5069781;28;20028;-70
2023/10/08 01:34:27;;;;;;;17.30;7.75;;;17.70;70.00;;;;;;5070692;28;20420;-70
2023/10/08 01:36:53;;;;;;;17.02;6.85;;;17.70;71.00;;;;;;5070704;28;20017;-70
2023/10/08 01:39:19;;;;;;;19.13;7.80;;;17.70;65.00;;;;;;5070631;28;20352;-70
2023/10/08 01:41:46;;;;;;;16.88;8.65;;;17.70;66.20;;;;;;5070182;28;20021;-69
2023/10/08 01:44:12;;;;;;;15.82;7.90;;;17.70;66.30;;;;;;5069358;28;20017;-70
2023/10/08 01:46:40;;;;;;;19.27;8.32;;;17.70;69.10;;;;;;5070587;28;20126;-70
2023/10/08 01:49:14;;;;;;;17.10;8.40;;;17.70;70.10;;;;;;5070104;28;20078;-70
2023/10/08 01:51:49;;;;;;;20.45;7.97;;;17.70;77.40;;;;;;5069475;28;20501;-69
2023/10/08 01:54:17;;;;;;;21.88;8.02;;;17.70;78.10;;;;;;5069948;28;20024;-69
2023/10/08 01:56:43;;;;;;;14.80;7.40;;;17.70;80.80;;;;;;5070261;28;20423;-70
2023/10/08 01:59:11;;;;;;;12.73;8.05;;;17.70;87.80;;;;;;5070271;28;20107;-70
2023/10/08 02:01:38;;;;;;;17.45;7.60;;;17.60;87.00;;;;;;5068940;28;20029;-70
2023/10/08 02:04:07;;;;;;;21.25;7.70;;;17.70;83.80;;;;;;5063920;28;20067;-69
2023/10/08 02:06:33;;;;;;;17.33;8.18;;;17.70;83.60;;;;;;5056726;28;20108;-70
2023/10/08 02:08:58;;;;;;;24.52;7.88;;;17.60;88.70;;;;;;5056866;28;20021;-69
2023/10/08 02:11:27;;;;;;;14.48;7.72;;;17.60;91.20;;;;;;5056590;28;20494;-69
2023/10/08 02:13:52;;;;;;;15.20;7.78;;;17.60;98.00;;;;;;5056254;28;20427;-69
2023/10/08 02:16:18;;;;;;;16.63;7.82;;;17.60;99.90;;;;;;5056747;28;20060;-68
2023/10/08 02:18:46;;;;;;;20.70;8.63;;;17.50;99.90;;;;;;5056241;28;20522;-69
2023/10/08 02:21:11;;;;;;;18.65;8.55;;;17.50;99.90;;;;;;5056640;28;20074;-68
2023/10/08 02:23:37;;;;;;;17.23;8.30;;;17.50;99.90;;;;;;5056187;28;20025;-69
2023/10/08 02:26:02;;;;;;;16.83;7.93;;;17.40;99.90;;;;;;5056252;28;20036;-69
2023/10/08 02:28:28;;;;;;;15.65;8.10;;;17.40;99.90;;;;;;5056232;28;20098;-69
2023/10/08 02:30:54;;;;;;;20.55;8.98;;;17.30;99.90;;;;;;5056528;28;20099;-69
2023/10/08 02:33:20;;;;;;;19.05;8.52;;;17.30;99.90;;;;;;5055689;28;20033;-69
2023/10/08 02:35:46;;;;;;;16.20;8.55;;;17.30;99.90;;;;;;5056442;28;20033;-69
2023/10/08 02:38:16;;;;;;;19.65;8.10;;;17.20;99.90;;;;;;5056363;28;20060;-69
2023/10/08 02:40:46;;;;;;;17.05;8.75;;;17.20;99.90;;;;;;5055883;28;20021;-77
2023/10/08 02:43:14;;;;;;;16.92;8.15;;;17.10;99.90;;;;;;5055581;28;20387;-69
2023/10/08 02:45:40;;;;;;;18.45;9.20;;;17.20;99.90;;;;;;5056268;28;20059;-69
2023/10/08 02:48:15;;;;;;;18.45;8.75;;;17.10;99.90;;;;;;5055952;28;20386;-70
2023/10/08 02:50:41;;;;;;;23.02;8.65;;;17.10;99.90;;;;;;5056056;28;20036;-69
2023/10/08 02:53:11;;;;;;;20.10;8.52;;;17.10;99.90;;;;;;5054948;28;20514;-69
2023/10/08 02:55:43;;;;;;;17.85;8.98;;;17.00;99.90;;;;;;5055746;28;20425;-69
2023/10/08 02:58:13;;;;;;;18.13;8.68;;;17.00;99.90;;;;;;5055731;28;20055;-69
2023/10/08 03:00:40;;;;;;;21.33;9.40;;;17.00;99.90;;;;;;5055289;28;20017;-69
2023/10/08 03:03:15;;;;;;;17.63;9.50;;;17.00;99.90;;;;;;5055262;28;20052;-69
2023/10/08 03:05:56;;;;;;;21.00;9.30;;;17.00;99.90;;;;;;5055427;28;20025;-69
2023/10/08 03:08:23;;;;;;;15.57;7.93;;;17.00;99.90;;;;;;5055154;28;20082;-69
2023/10/08 03:10:55;;;;;;;17.90;8.10;;;17.00;99.90;;;;;;5055531;28;20370;-69
2023/10/08 03:13:21;;;;;;;23.30;9.48;;;16.90;99.90;;;;;;5055193;28;20387;-69
2023/10/08 03:16:07;;;;;;;25.42;9.82;;;16.90;99.90;;;;;;5054158;28;20559;-69
2023/10/08 03:18:36;;;;;;;22.95;9.30;;;16.90;99.90;;;;;;5054125;28;20025;-69
2023/10/08 03:21:04;;;;;;;18.42;9.00;;;16.90;99.90;;;;;;5055317;28;20021;-69
2023/10/08 03:23:34;;;;;;;18.13;9.40;;;17.00;99.90;;;;;;5055055;28;20044;-69
2023/10/08 03:26:09;;;;;;;21.75;9.80;;;17.00;99.90;;;;;;5055430;28;20060;-69
2023/10/08 03:28:34;;;;;;;24.15;9.77;;;17.00;99.90;;;;;;5054609;28;20029;-69
2023/10/08 03:31:17;;;;;;;23.25;9.32;;;17.00;99.90;;;;;;5055333;28;20215;-69
2023/10/08 03:33:48;;;;;;;24.42;9.73;;;16.90;99.90;;;;;;5055078;28;20052;-69
2023/10/08 03:36:20;;;;;;;20.17;9.68;;;16.90;99.90;;;;;;5054991;28;20567;-69
2023/10/08 03:38:50;;;;;;;23.83;10.30;;;16.80;99.90;;;;;;5054800;28;20056;-69
2023/10/08 03:41:18;;;;;;;29.33;11.38;;;16.80;99.90;;;;;;5055229;28;20025;-69
2023/10/08 03:44:37;;;;;;;23.58;10.50;;;16.80;99.90;;;;;;5054701;28;20021;-69
2023/10/08 03:46:31;;;;;;;22.90;9.55;;;16.70;99.90;;;;;;5053973;28;20083;-69
2023/10/08 03:49:04;;;;;;;20.77;9.85;;;16.80;99.90;;;;;;5054691;28;20529;-69
2023/10/08 03:51:29;;;;;;;20.52;9.65;;;16.70;99.90;;;;;;5054918;28;20377;-70
2023/10/08 03:54:18;;;;;;;18.67;8.88;;;16.70;99.90;;;;;;5053461;28;20131;-69
2023/10/08 03:56:45;;;;;;;23.60;9.82;;;16.70;99.90;;;;;;5053765;28;20468;-69
2023/10/08 03:59:12;;;;;;;19.23;9.13;;;16.70;99.90;;;;;;5054501;28;20035;-70
2023/10/08 04:01:41;;;;;;;24.73;11.02;;;16.70;99.90;;;;;;5054496;28;20028;-70
2023/10/08 04:04:12;;;;;;;21.45;11.48;;;16.60;99.90;;;;;;5054821;28;20479;-70
2023/10/08 04:06:38;;;;;;;26.75;13.20;;;16.50;99.90;;;;;;5054096;28;20024;-70
2023/10/08 04:11:55;;;;;;;10.05;5.30;;;16.20;99.90;;;;;;5091582;28;20439;-69
2023/10/08 04:14:23;;;;;;;8.45;4.03;;;16.00;99.90;;;;;;5091385;28;20020;-70
2023/10/08 04:16:53;;;;;;;8.93;4.32;;;15.70;99.90;;;;;;5091689;28;20021;-69
2023/10/08 04:19:21;;;;;;;7.35;3.88;;;15.60;99.90;;;;;;5091471;28;20020;-69
2023/10/08 04:21:53;;;;;;;6.32;3.40;;;15.50;99.90;;;;;;5091628;28;20030;-70
2023/10/08 04:24:22;;;;;;;5.93;2.80;;;15.30;99.90;;;;;;5091685;28;20501;-70
2023/10/08 04:26:49;;;;;;;2.83;2.33;;;15.30;99.90;;;;;;5091005;28;20695;-70
2023/10/08 04:29:16;;;;;;;2.05;1.90;;;15.10;99.90;;;;;;5091515;28;20339;-70
2023/10/08 04:31:46;;;;;;;3.90;2.05;;;15.00;99.90;;;;;;5091174;28;20032;-70
2023/10/08 04:34:15;;;;;;;5.60;3.75;;;14.90;99.90;;;;;;5090974;28;20466;-70
2023/10/08 04:36:45;;;;;;;5.05;4.05;;;14.80;99.90;;;;;;5091385;28;20025;-70
2023/10/08 04:39:14;;;;;;;8.18;5.85;;;14.70;99.90;;;;;;5090893;28;20122;-71
2023/10/08 04:41:43;;;;;;;11.73;6.53;;;14.60;99.90;;;;;;5091265;28;20408;-70
2023/10/08 04:44:14;;;;;;;14.63;8.15;;;14.50;99.90;;;;;;5090690;28;20035;-70
2023/10/08 04:46:51;;;;;;;15.00;7.35;;;14.50;99.90;;;;;;5090675;28;20081;-70
2023/10/08 04:49:27;;;;;;;15.98;7.30;;;14.40;99.90;;;;;;5090537;28;20032;-70
2023/10/08 04:51:57;;;;;;;11.02;5.38;;;14.30;99.90;;;;;;5090338;28;20031;-71
2023/10/08 04:54:30;;;;;;;12.15;5.78;;;14.40;99.90;;;;;;5090897;28;20066;-70
2023/10/08 04:57:00;;;;;;;15.15;6.60;;;14.30;99.90;;;;;;5090675;28;20373;-70
2023/10/08 04:59:35;;;;;;;16.85;6.80;;;14.30;99.90;;;;;;5090817;28;20535;-70
2023/10/08 05:02:12;;;;;;;16.63;6.80;;;14.20;99.90;;;;;;5089951;28;20109;-70
2023/10/08 05:04:56;;;;;;;15.68;6.13;;;14.20;99.90;;;;;;5090822;28;20081;-70
2023/10/08 05:13:14;;;;;;;7.20;4.07;;;14.00;99.90;;;;;;5111969;27;20756;-70
2023/10/08 05:15:33;;;;;;;11.73;5.05;;;13.90;99.90;;;;;;5111026;28;20032;-70
2023/10/08 05:18:13;;;;;;;11.70;4.72;;;13.90;99.90;;;;;;5112077;28;20503;-70
2023/10/08 05:20:58;;;;;;;8.95;4.38;;;13.90;99.90;;;;;;5111383;28;20065;-70
2023/10/08 05:29:39;;;;;;;10.00;5.00;;;13.70;99.90;;;;;;5091632;28;20782;-70
2023/10/08 05:34:16;;;;;;;11.20;4.30;;;13.70;99.90;;;;;;5090587;28;20395;-70
2023/10/08 05:36:50;;;;;;;7.03;2.92;;;13.60;99.90;;;;;;5090415;28;20024;-70
2023/10/08 05:42:32;;;;;;;10.65;3.20;;;13.60;99.90;;;;;;5112050;27;20373;-69
2023/10/08 05:45:13;;;;;;;7.55;2.97;;;13.40;99.90;;;;;;5111055;28;20028;-70
2023/10/08 05:52:50;;;;;;;11.00;4.07;;;13.40;99.90;;;;;;5111404;28;20030;-68
2023/10/08 05:55:25;;;;;;;10.02;3.17;;;13.40;99.90;;;;;;5111398;28;20419;-68
2023/10/08 05:58:13;;;;;;;8.45;3.75;;;13.40;99.90;;;;;;5111429;28;20539;-68
2023/10/08 06:01:09;;;;;;;6.82;3.75;;;13.40;99.90;;;;;;5111897;28;20466;-68
2023/10/08 06:03:32;;;;;;;9.70;4.80;;;13.40;99.90;;;;;;5110828;28;20394;-68
2023/10/08 06:06:22;;;;;;;14.27;5.85;;;13.40;99.90;;;;;;5111918;28;20051;-68
2023/10/08 06:08:51;;;;;;;9.65;5.00;;;13.40;99.90;;;;;;5110658;28;20111;-68
2023/10/08 06:15:24;;;;;;;14.20;5.22;;;13.40;99.90;;;;;;5110491;28;20394;-68
2023/10/08 06:17:13;;;;;;;11.00;5.47;;;13.30;99.90;;;;;;5110562;28;20034;-69
2023/10/08 06:19:39;;;;;;;15.63;5.57;;;13.30;99.90;;;;;;5111192;28;20032;-69
2023/10/08 06:22:04;;;;;;;9.73;5.35;;;13.20;99.90;;;;;;5111422;28;20023;-68
2023/10/08 06:24:33;;;;;;;12.27;5.72;;;13.10;99.90;;;;;;5110967;28;20032;-69
2023/10/08 06:27:04;;;;;;;12.90;5.47;;;13.10;99.90;;;;;;5111210;28;20027;-69
2023/10/08 06:29:31;;;;;;;9.68;4.82;;;13.10;99.90;;;;;;5111186;28;20024;-69
2023/10/08 06:32:01;;;;;;;11.48;5.45;;;13.10;99.90;;;;;;5110099;28;20020;-69
2023/10/08 06:34:27;;;;;;;14.52;5.93;;;13.00;99.90;;;;;;5110886;28;20062;-69
2023/10/08 06:36:54;;;;;;;13.45;5.03;;;13.00;99.90;;;;;;5110181;28;20023;-69
2023/10/08 06:39:25;;;;;;;13.23;4.95;;;13.00;99.90;;;;;;5110894;28;20406;-68
2023/10/08 06:41:53;;;;;;;10.80;4.38;;;13.00;99.90;;;;;;5111231;28;20070;-68
2023/10/08 06:44:19;;;;;;;8.32;3.90;;;13.00;99.90;;;;;;5110399;28;20172;-68
2023/10/08 06:46:45;;;;;;;8.90;3.65;;;12.90;99.90;;;;;;5110830;28;20081;-67
2023/10/08 06:49:11;;;;;;;9.20;3.55;;;12.90;99.90;;;;;;5109990;28;20451;-67
2023/10/08 06:51:38;;;;;;;7.60;3.67;;;12.80;99.90;;;;;;5110924;28;20490;-68
2023/10/08 06:54:04;;;;;;;8.23;3.38;;;12.80;99.90;;;;;;5110919;28;20028;-67
2023/10/08 06:56:31;;;;;;;9.40;5.07;;;12.80;99.90;;;;;;5110398;28;20169;-67
2023/10/08 06:58:58;;;;;;;18.50;5.88;;;12.70;99.90;;;;;;5110524;28;20395;-67
2023/10/08 07:01:24;;;;;;;18.30;6.72;;;12.80;99.90;;;;;;5097766;28;20347;-67
2023/10/08 07:03:56;;;;;;;18.10;6.28;;;12.70;99.90;;;;;;5096627;28;20082;-67
2023/10/08 07:06:37;;;;;;;18.88;6.60;;;12.80;99.90;;;;;;5097176;28;20031;-67
2023/10/08 07:09:06;;;;;;;18.88;6.70;;;12.70;99.90;;;;;;5096947;28;20024;-67
2023/10/08 07:11:34;;;;;;;14.55;5.88;;;12.80;99.90;;;;;;5096818;28;20021;-66
2023/10/08 07:14:01;;;;;;;9.73;4.47;;;12.70;99.90;;;;;;5097077;28;20440;-66
2023/10/08 07:16:28;;;;;;;8.82;3.17;;;12.60;99.90;;;;;;5096879;28;20035;-67
2023/10/08 07:19:01;;;;;;;9.32;2.28;;;12.50;99.90;;;;;;5096226;28;20040;-67
2023/10/08 07:21:38;;;;;;;7.47;2.05;;;12.40;99.90;;;;;;5096556;28;20089;-67
2023/10/08 07:24:09;;;;;;;5.05;1.80;;;12.30;99.90;;;;;;5096085;28;20032;-67
2023/10/08 07:26:36;;;;;;;4.78;2.00;;;12.20;99.90;;;;;;5096143;28;20084;-67
2023/10/08 07:29:08;;;;;;;8.68;1.98;;;12.20;99.90;;;;;;5096180;28;20035;-68
2023/10/08 07:31:36;;;;;;;9.02;1.88;;;12.30;99.90;;;;;;5095394;28;20108;-68
2023/10/08 07:34:33;;;;;;;5.43;1.30;;;12.10;99.90;;;;;;5095994;28;20051;-75
2023/10/08 07:36:49;;;;;;;8.82;2.20;;;12.10;99.90;;;;;;5095437;28;20028;-68
2023/10/08 07:39:33;;;;;;;4.15;1.50;;;12.00;99.90;;;;;;5095711;28;20031;-68
2023/10/08 07:42:00;;;;;;;9.82;1.80;;;12.00;99.90;;;;;;5096185;28;20028;-68
2023/10/08 07:44:30;;;;;;;10.50;2.70;;;12.00;99.90;;;;;;5096204;28;20020;-69
2023/10/08 07:46:56;;;;;;;6.03;1.70;;;12.00;99.90;;;;;;5095176;28;20031;-72
2023/10/08 07:49:23;;;;;;;10.50;2.10;;;12.00;99.90;;;;;;5095276;28;20052;-68
2023/10/08 07:51:50;;;;;;;5.40;2.00;;;11.90;99.90;;;;;;5095896;28;20070;-68
2023/10/08 07:54:20;;;;;;;8.52;2.33;;;12.00;99.90;;;;;;5096224;28;20031;-68
2023/10/08 07:56:47;;;;;;;9.25;2.38;;;12.10;99.90;;;;;;5095817;28;20027;-68
2023/10/08 07:59:14;;;;;;;7.63;2.20;;;12.20;99.90;;;;;;5095876;28;20024;-68
2023/10/08 08:01:42;;;;;;;11.07;2.53;;;12.20;99.90;;;;;;5095505;28;20110;-68
2023/10/08 08:04:22;;;;;;;14.15;2.53;;;12.20;99.90;;;;;;5095697;28;20032;-67
2023/10/08 08:06:49;;;;;;;10.02;3.30;;;12.20;99.90;;;;;;5095638;28;20024;-67
2023/10/08 08:09:19;;;;;;;14.13;3.45;;;12.20;99.90;;;;;;5095421;28;20473;-67
2023/10/08 08:11:46;;;;;;;9.45;3.33;;;12.20;99.90;;;;;;5094636;28;20031;-67
2023/10/08 08:14:16;;;;;;;5.93;3.10;;;12.30;99.90;;;;;;5095646;28;20492;-67
2023/10/08 08:16:47;;;;;;;6.72;3.33;;;12.10;99.90;;;;;;5095469;28;20046;-66
2023/10/08 08:19:15;;;;;;;11.93;3.40;;;12.10;99.90;;;;;;5095488;28;20028;-67
2023/10/08 08:21:45;;;;;;;10.05;3.45;;;12.10;99.90;;;;;;5095464;28;20073;-67
2023/10/08 08:24:12;;;;;;;8.18;2.80;;;12.10;99.90;;;;;;5095617;28;20028;-66
2023/10/08 08:27:00;;;;;;;8.82;2.85;;;12.30;99.90;;;;;;5095459;28;20108;-67
2023/10/08 08:29:24;;;;;;;8.77;2.90;;;12.30;99.90;;;;;;5094407;28;20107;-68
2023/10/08 08:31:53;;;;;;;6.43;2.65;;;12.30;99.90;;;;;;5094869;28;20462;-67
2023/10/08 08:34:19;;;;;;;8.40;2.40;;;12.40;99.90;;;;;;5095475;28;20024;-67
2023/10/08 08:36:48;;;;;;;12.45;2.28;;;12.40;99.90;;;;;;5094158;28;20059;-69
2023/10/08 08:39:28;;;;;;;5.38;2.10;;;12.30;99.90;;;;;;5095381;28;20454;-68
2023/10/08 08:41:58;;;;;;;10.43;2.05;;;12.30;99.90;;;;;;5095251;28;20059;-68
2023/10/08 08:44:30;;;;;;;7.03;2.05;;;12.30;99.90;;;;;;5095080;28;20024;-68
2023/10/08 08:46:58;;;;;;;11.50;2.83;;;12.30;99.90;;;;;;5095216;28;20032;-68
2023/10/08 08:49:27;;;;;;;11.02;2.15;;;12.30;99.90;;;;;;5094149;28;20044;-68
2023/10/08 08:51:55;;;;;;;7.35;2.20;;;12.60;99.90;;;;;;5094719;28;20028;-68
2023/10/08 08:54:21;;;;;;;9.30;1.90;;;12.60;99.90;;;;;;5094767;28;20024;-68
2023/10/08 08:56:47;;;;;;;7.50;2.00;;;12.70;99.90;;;;;;5094992;28;20028;-68
2023/10/08 08:59:13;;;;;;;7.97;2.05;;;12.70;99.90;;;;;;5094744;28;20595;-68
2023/10/08 09:01:41;;;;;;;9.98;1.80;;;12.70;99.90;;;;;;5094946;28;20035;-68
2023/10/08 09:04:07;;;;;;;9.77;2.10;;;12.60;99.90;;;;;;5094985;28;20039;-68
2023/10/08 09:06:34;;;;;;;6.65;1.50;;;12.40;99.90;;;;;;5094722;28;20028;-68
2023/10/08 09:09:13;;;;;;;5.22;1.75;;;12.50;99.90;;;;;;5094284;28;20020;-67
2023/10/08 09:11:42;;;;;;;9.65;2.17;;;12.60;99.90;;;;;;5094306;28;20030;-67
2023/10/08 09:14:10;;;;;;;13.05;2.13;;;12.40;99.90;;;;;;5094680;28;20026;-67
2023/10/08 09:16:36;;;;;;;11.07;2.10;;;12.30;99.90;;;;;;5094693;28;20034;-67
2023/10/08 09:19:02;;;;;;;7.35;1.80;;;12.40;99.90;;;;;;5094344;28;20356;-67
2023/10/08 09:21:28;;;;;;;7.75;1.90;;;12.50;99.90;;;;;;5094380;28;20089;-67
2023/10/08 09:23:54;;;;;;;7.07;1.98;;;12.60;99.90;;;;;;5093905;28;20028;-67
2023/10/08 09:26:24;;;;;;;11.25;1.55;;;12.80;99.90;;;;;;5094611;28;20495;-67
2023/10/08 09:28:51;;;;;;;11.05;2.08;;;12.80;99.90;;;;;;5094015;28;20123;-67
2023/10/08 09:31:17;;;;;;;7.15;1.88;;;12.70;99.90;;;;;;5094527;28;20073;-67
2023/10/08 09:33:52;;;;;;;9.20;1.70;;;12.80;99.90;;;;;;5094206;28;20024;-67
2023/10/08 09:36:19;;;;;;;6.07;1.45;;;12.90;99.90;;;;;;5094164;28;20509;-67
2023/10/08 09:38:48;;;;;;;9.98;2.10;;;12.90;99.90;;;;;;5094064;28;20032;-67
2023/10/08 09:41:14;;;;;;;8.50;1.58;;;13.00;99.90;;;;;;5093518;28;20024;-67
2023/10/08 09:43:41;;;;;;;5.97;1.60;;;13.10;99.90;;;;;;5094323;28;20038;-67
2023/10/08 09:46:15;;;;;;;7.50;1.98;;;13.30;99.90;;;;;;5094275;28;20107;-67
2023/10/08 09:48:44;;;;;;;6.28;1.60;;;13.30;99.90;;;;;;5093559;28;20502;-67
2023/10/08 09:51:12;;;;;;;6.13;1.95;;;13.40;99.90;;;;;;5094226;28;20024;-67
2023/10/08 09:53:51;;;;;;;11.05;2.22;;;13.50;99.90;;;;;;5094268;28;20107;-68
2023/10/08 09:56:19;;;;;;;5.05;1.58;;;13.90;99.90;;;;;;5093571;28;20020;-67
2023/10/08 09:58:49;;;;;;;5.72;1.83;;;14.30;99.90;;;;;;5093821;28;20028;-68
2023/10/08 10:01:17;;;;;;;8.35;1.75;;;14.60;93.50;;;;;;5094126;28;20034;-68
2023/10/08 10:03:44;;;;;;;6.88;1.85;;;14.70;93.80;;;;;;5094179;28;20115;-68
2023/10/08 10:06:15;;;;;;;10.18;1.55;;;14.70;44.10;;;;;;5093553;28;20024;-68
2023/10/08 10:08:42;;;;;;;4.82;1.75;;;14.80;41.10;;;;;;5093929;28;20069;-68
2023/10/08 10:11:08;;;;;;;8.48;1.77;;;14.80;10.60;;;;;;5094018;28;20483;-68
2023/10/08 10:13:38;;;;;;;6.30;1.80;;;14.80;8.60;;;;;;5092883;28;20024;-68
2023/10/08 10:16:07;;;;;;;6.30;1.33;;;14.90;18.20;;;;;;5093377;28;20113;-68
2023/10/08 10:18:33;;;;;;;9.52;1.75;;;14.90;1.00;;;;;;5093930;28;20032;-68
2023/10/08 10:21:17;;;;;;;6.70;1.73;;;14.90;22.30;;;;;;5093664;28;20020;-68
2023/10/08 10:23:45;;;;;;;8.38;1.73;;;14.70;1.00;;;;;;5093754;28;20042;-68
2023/10/08 10:26:31;;;;;;;4.93;1.67;;;14.50;13.30;;;;;;5092807;28;20031;-68
2023/10/08 10:31:53;;;;;;;5.75;1.90;;;14.40;1.00;;;;;;5091548;27;20937;-68
2023/10/08 10:34:21;;;;;;;5.97;1.42;;;14.30;17.30;;;;;;5091525;28;20394;-69
2023/10/08 10:36:49;;;;;;;9.95;1.80;;;14.20;53.70;;;;;;5090934;28;20035;-68
2023/10/08 10:39:16;;;;;;;7.70;1.60;;;14.20;52.50;;;;;;5090974;28;20520;-68
2023/10/08 10:41:46;;;;;;;7.75;1.52;;;14.20;56.80;;;;;;5091569;28;20450;-68
2023/10/08 10:44:13;;;;;;;7.32;1.60;;;14.00;3.20;;;;;;5091135;28;20024;-68
2023/10/08 10:46:41;;;;;;;8.63;1.77;;;14.10;27.60;;;;;;5091178;28;20103;-68
2023/10/08 10:49:18;;;;;;;5.68;2.10;;;14.10;20.10;;;;;;5091225;28;20031;-68
2023/10/08 10:51:46;;;;;;;8.25;1.88;;;14.30;26.90;;;;;;5090776;28;20470;-68
2023/10/08 10:54:19;;;;;;;9.43;1.98;;;14.40;25.70;;;;;;5091300;28;20024;-68
2023/10/08 10:56:47;;;;;;;;;;;14.70;1.00;;;;;;5091181;28;20025;-69
2023/10/08 10:59:29;;;;;;;6.40;1.52;;;15.20;1.00;;;;;;5090778;28;20301;-68
2023/10/08 11:02:08;;;;;;;5.28;1.60;;;15.20;1.00;;;;;;5091212;28;20078;-68
2023/10/08 11:04:47;;;;;;;7.93;1.95;;;15.40;1.00;;;;;;5090796;28;20027;-68
2023/10/08 11:07:15;;;;;;;7.63;1.98;;;15.50;1.00;;;;;;5090573;28;20081;-68
2023/10/08 11:09:44;;;;;;;8.02;1.77;;;15.30;1.00;;;;;;5090367;28;20039;-68
2023/10/08 11:12:12;;;;;;;10.63;1.80;;;15.40;1.00;;;;;;5090515;28;20024;-68
2023/10/08 11:14:42;;;;;;;4.30;1.58;;;15.60;1.00;;;;;;5091022;28;20028;-68
2023/10/08 11:17:11;;;;;;;8.13;1.80;;;15.60;1.00;;;;;;5090253;28;20021;-68
2023/10/08 11:19:36;;;;;;;9.20;1.50;;;15.50;1.00;;;;;;5090300;28;20024;-68
2023/10/08 11:22:02;;;;;;;3.85;1.60;;;15.50;1.00;;;;;;5090597;28;20024;-68
2023/10/08 11:24:29;;;;;;;6.93;1.45;;;15.40;1.00;;;;;;5090260;28;20052;-68
2023/10/08 11:27:06;;;;;;;6.85;1.55;;;15.30;1.00;;;;;;5090680;28;20028;-68
2023/10/08 11:29:32;;;;;;;6.22;1.33;;;15.40;1.00;;;;;;5089858;28;20111;-68
2023/10/08 11:32:00;;;;;;;8.68;1.48;;;15.50;1.00;;;;;;5090758;28;20023;-68
2023/10/08 11:34:36;;;;;;;3.72;1.35;;;15.40;1.00;;;;;;5090409;28;20021;-68
2023/10/08 11:37:07;;;;;;;6.15;1.30;;;15.50;1.00;;;;;;5090268;28;20044;-68
2023/10/08 11:39:45;;;;;;;3.20;1.45;;;15.60;99.90;;;;;;5089214;28;20066;-68
2023/10/08 11:42:44;;;;;;;7.55;1.90;;;15.70;1.00;;;;;;5081871;28;20028;-68
2023/10/08 11:44:59;;;;;;;4.90;1.40;;;15.60;99.90;;;;;;5075816;28;20052;-68
2023/10/08 11:47:30;;;;;;;5.88;1.40;;;15.50;99.90;;;;;;5076871;28;20025;-68
2023/10/08 11:50:09;;;;;;;5.20;1.60;;;15.60;99.90;;;;;;5076684;28;20036;-68
2023/10/08 11:52:41;;;;;;;4.22;1.48;;;15.80;1.00;;;;;;5075884;28;20024;-68
2023/10/08 11:55:07;;;;;;;5.82;1.30;;;16.00;99.90;;;;;;5076482;28;20032;-69
2023/10/08 11:57:35;;;;;;;5.32;1.33;;;15.90;99.90;;;;;;5076402;28;20027;-69
2023/10/08 12:00:16;;;;;;;6.93;1.60;;;16.10;1.00;;;;;;5076592;28;20048;-68
2023/10/08 12:02:43;;;;;;;3.63;1.42;;;16.00;1.00;;;;;;5076023;28;20032;-68
2023/10/08 12:05:18;;;;;;;4.43;1.30;;;15.80;99.90;;;;;;5076363;28;20028;-68
2023/10/08 12:07:47;;;;;;;6.88;1.80;;;16.00;83.10;;;;;;5076559;28;20511;-68
2023/10/08 12:10:16;;;;;;;3.58;1.10;;;16.20;1.00;;;;;;5076027;28;20447;-69
2023/10/08 12:12:43;;;;;;;5.25;1.10;;;16.20;99.90;;;;;;5076017;28;20029;-68
2023/10/08 12:15:09;;;;;;;4.95;1.50;;;16.30;1.00;;;;;;5076278;28;20028;-69
2023/10/08 12:17:39;;;;;;;4.35;1.20;;;16.10;99.90;;;;;;5075501;28;20394;-69
2023/10/08 12:20:22;;;;;;;5.22;1.40;;;16.20;90.60;;;;;;5076009;28;20024;-69
2023/10/08 12:22:49;;;;;;;2.88;1.35;;;16.20;99.90;;;;;;5075910;28;20024;-69
2023/10/08 12:25:14;;;;;;;3.17;1.30;;;16.30;99.90;;;;;;5076203;28;20036;-68
2023/10/08 12:27:40;;;;;;;3.92;1.30;;;16.30;1.00;;;;;;5076221;28;20085;-72
2023/10/08 12:30:10;;;;;;;3.72;1.48;;;16.30;1.00;;;;;;5075639;28;20044;-69
2023/10/08 12:32:40;;;;;;;2.70;1.27;;;16.20;99.90;;;;;;5075806;28;20391;-69
2023/10/08 12:35:12;;;;;;;3.35;1.15;;;16.10;99.90;;;;;;5075765;28;20025;-69
2023/10/08 12:37:39;;;;;;;3.88;1.50;;;16.10;1.00;;;;;;5075387;28;20402;-69
2023/10/08 12:40:22;;;;;;;4.22;1.13;;;16.10;94.70;;;;;;5075567;28;20177;-69
2023/10/08 12:42:54;;;;;;;5.03;1.23;;;16.10;1.00;;;;;;5075167;28;20463;-68
2023/10/08 12:45:20;;;;;;;4.97;1.27;;;16.00;99.90;;;;;;5075586;28;20059;-68
2023/10/08 12:47:49;;;;;;;7.07;1.40;;;16.10;1.00;;;;;;5075601;28;20040;-68
2023/10/08 12:50:15;;;;;;;4.90;1.55;;;16.20;99.90;;;;;;5075257;28;20479;-69
2023/10/08 12:52:52;;;;;;;4.55;1.17;;;16.40;99.90;;;;;;5074994;28;20477;-69
2023/10/08 12:55:19;;;;;;;4.13;1.02;;;16.10;1.00;;;;;;5075113;28;20020;-69
2023/10/08 12:57:49;;;;;;;3.00;1.30;;;16.10;99.90;;;;;;5075214;28;20109;-69
2023/10/08 13:00:15;;;;;;;3.80;1.13;;;16.30;99.90;;;;;;5075412;28;20017;-69
2023/10/08 13:02:42;;;;;;;4.25;1.20;;;16.10;10.20;;;;;;5075077;28;20040;-69
2023/10/08 13:05:15;;;;;;;4.65;1.20;;;16.30;1.00;;;;;;5074974;28;20378;-69
2023/10/08 13:07:42;;;;;;;3.33;1.10;;;16.10;99.90;;;;;;5074939;28;20377;-69
2023/10/08 13:10:11;;;;;;;1.60;1.08;;;16.10;99.90;;;;;;5073922;28;20063;-69
2023/10/08 13:12:37;;;;;;;3.03;0.90;;;16.10;1.00;;;;;;5074504;28;20489;-69
2023/10/08 13:15:06;;;;;;;2.10;1.00;;;16.10;92.90;;;;;;5074757;28;20528;-69
2023/10/08 13:17:32;;;;;;;3.08;1.10;;;15.90;1.00;;;;;;5074431;28;20050;-69
2023/10/08 13:19:57;;;;;;;3.42;1.00;;;15.80;1.00;;;;;;5074501;28;20033;-69
2023/10/08 13:22:24;;;;;;;3.25;0.90;;;16.00;1.00;;;;;;5074648;28;20025;-69
2023/10/08 13:24:49;;;;;;;4.80;1.35;;;16.10;9.80;;;;;;5074902;28;20036;-69
2023/10/08 13:27:16;;;;;;;3.45;1.30;;;16.10;1.00;;;;;;5074545;28;20527;-69
2023/10/08 13:29:43;;;;;;;5.05;1.20;;;16.10;1.00;;;;;;5074308;28;20056;-69
2023/10/08 13:32:17;;;;;;;4.57;1.27;;;16.30;1.00;;;;;;5074572;28;20021;-69